Cou Falls, Iowa
Current Conditions -  °F | °C
As of 3:52 PM on Thursday 23 Oct 2014 (Local Time) from KCID Reporting Station
Overcast Overcast  
Wind Chill: 57°   Ceiling: 1400
Heat Index: 57°   Visibility: 10mi
Dew Point: 51°   Wind: 6mph
Humidity: 81%   Direction: 230°SW
Pressure: 30.02"   Gusts: NA
Location:  41.8309°N, 91.7193°W
Report Text: KCID 232052Z 23005KT 10SM OVC014 14/11 A3002 RMK AO2 SLP167 T01390106 56011
Loading
Personal Weather Stations






























Interactive Weather Map
Tropical Storm Tracking
New forecast layout! Learn more

10-Day Weather Forecast

Advertisements
Track Severe Weather on mobile